Time;durP1;ratioP1;P1;durP2;ratioP2;P2;SDS_P1;SDS_P2;PMS_P1;PMS_P2;Temp;Humidity;BMP_temperature;BMP_pressure;BME280_temperature;BME280_humidity;BME280_pressure;Samples;Min_cycle;Max_cycle;Signal;HPM_P1;HPM_P2
2024/02/14 00:02:15;;;;;;;1.55;1.35;;;;;;;10.05;99.82;99444.06;5000882;28;20038;-61
2024/02/14 00:04:41;;;;;;;2.90;1.85;;;;;;;10.05;100.00;99454.66;5000993;28;20320;-62
2024/02/14 00:07:06;;;;;;;1.95;1.30;;;;;;;10.08;99.93;99450.84;5000815;28;20117;-65
2024/02/14 00:09:32;;;;;;;1.27;1.08;;;;;;;10.11;98.34;99445.22;4999141;28;20352;-63
2024/02/14 00:11:57;;;;;;;1.50;1.40;;;;;;;10.16;98.35;99451.66;4999897;28;20042;-61
2024/02/14 00:14:24;;;;;;;1.63;1.30;;;;;;;10.18;98.23;99448.84;5000954;28;20050;-60
2024/02/14 00:16:50;;;;;;;1.77;1.40;;;;;;;10.14;98.69;99456.28;5000146;28;20091;-63
2024/02/14 00:19:16;;;;;;;1.30;1.20;;;;;;;10.18;98.29;99459.44;5001196;28;20064;-62
2024/02/14 00:21:42;;;;;;;1.40;1.17;;;;;;;10.12;97.86;99458.28;5000224;28;20275;-63
2024/02/14 00:24:08;;;;;;;1.65;1.30;;;;;;;10.18;98.54;99464.72;5000568;28;20062;-64
2024/02/14 00:26:33;;;;;;;1.33;1.08;;;;;;;10.17;98.86;99463.91;4999997;28;20380;-62
2024/02/14 00:28:59;;;;;;;2.15;1.35;;;;;;;10.17;98.96;99463.06;5000230;28;20065;-63
2024/02/14 00:31:25;;;;;;;2.17;1.20;;;;;;;10.15;100.00;99471.19;4999950;28;20034;-62
2024/02/14 00:33:50;;;;;;;1.55;1.20;;;;;;;10.13;100.00;99465.22;4999736;28;20042;-62
2024/02/14 00:36:16;;;;;;;1.73;1.20;;;;;;;10.13;100.00;99467.88;5000006;28;20038;-64
2024/02/14 00:38:42;;;;;;;1.50;1.10;;;;;;;10.15;100.00;99471.19;4999336;28;20292;-64
2024/02/14 00:41:07;;;;;;;1.63;1.00;;;;;;;10.09;100.00;99468.38;4999830;28;20741;-62
2024/02/14 00:43:33;;;;;;;1.42;0.95;;;;;;;10.09;100.00;99457.78;4999199;28;20324;-62
2024/02/14 00:45:58;;;;;;;1.70;1.00;;;;;;;10.10;100.00;99462.91;5000526;28;20089;-62
2024/02/14 00:48:24;;;;;;;1.20;1.08;;;;;;;10.08;100.00;99478.13;4999300;28;20235;-62
2024/02/14 00:50:49;;;;;;;2.03;1.00;;;;;;;10.04;99.95;99471.50;5000598;28;20304;-62
2024/02/14 00:53:15;;;;;;;1.58;1.27;;;;;;;10.10;99.76;99472.66;4999646;28;20049;-63
2024/02/14 00:55:41;;;;;;;1.65;1.10;;;;;;;10.09;99.22;99471.84;5000069;28;20042;-62
2024/02/14 00:58:06;;;;;;;1.35;1.20;;;;;;;10.10;99.21;99477.97;4999460;28;20038;-64
2024/02/14 01:00:32;;;;;;;1.63;1.23;;;;;;;10.10;99.88;99483.25;4999946;28;20069;-63
2024/02/14 01:02:58;;;;;;;2.75;1.58;;;;;;;10.07;98.73;99480.94;4999537;28;20260;-62
2024/02/14 01:05:24;;;;;;;1.40;1.30;;;;;;;10.08;99.06;99483.41;4999502;28;20052;-62
2024/02/14 01:07:50;;;;;;;2.97;1.50;;;;;;;10.05;98.68;99483.75;4998513;28;20034;-62
2024/02/14 01:10:15;;;;;;;1.33;1.20;;;;;;;10.03;99.11;99482.25;4998882;28;20283;-63
2024/02/14 01:12:41;;;;;;;3.50;1.80;;;;;;;10.05;98.85;99483.75;4999245;28;20022;-63
2024/02/14 01:15:07;;;;;;;2.63;1.42;;;;;;;10.01;99.18;99476.31;4999162;28;20133;-62
2024/02/14 01:17:33;;;;;;;1.80;1.58;;;;;;;10.01;98.32;99477.13;5000008;28;20037;-62
2024/02/14 01:19:58;;;;;;;1.70;1.58;;;;;;;10.00;98.19;99478.13;4998988;28;20034;-62
2024/02/14 01:22:24;;;;;;;2.40;1.70;;;;;;;9.94;97.64;99476.13;5000544;28;20057;-62
2024/02/14 01:24:50;;;;;;;1.60;1.50;;;;;;;9.98;97.79;99488.03;4998048;28;20132;-62
2024/02/14 01:27:16;;;;;;;1.63;1.50;;;;;;;9.98;97.09;99480.09;5000135;28;20038;-62
2024/02/14 01:29:42;;;;;;;2.33;1.50;;;;;;;9.99;97.54;99486.22;4998410;28;20126;-62
2024/02/14 01:32:09;;;;;;;2.45;1.90;;;;;;;10.00;97.28;99486.06;4999557;28;20031;-62
2024/02/14 01:34:35;;;;;;;1.65;1.45;;;;;;;9.98;97.19;99489.84;4998823;28;20105;-64
2024/02/14 01:37:00;;;;;;;3.83;1.50;;;;;;;9.99;97.12;99486.22;4999269;28;20046;-63
2024/02/14 01:39:26;;;;;;;1.45;1.35;;;;;;;9.97;96.29;99483.75;4998552;28;20432;-62
2024/02/14 01:41:51;;;;;;;1.70;1.40;;;;;;;9.93;96.30;99475.31;4999049;28;20497;-62
2024/02/14 01:44:18;;;;;;;1.50;1.40;;;;;;;10.02;95.91;99484.06;4999173;28;20057;-63
2024/02/14 01:46:44;;;;;;;1.42;1.17;;;;;;;10.04;95.58;99482.09;4998678;28;20053;-62
2024/02/14 01:49:14;;;;;;;1.65;1.08;;;;;;;9.98;95.72;99480.09;4999050;28;20045;-62
2024/02/14 01:51:42;;;;;;;1.98;1.30;;;;;;;10.01;95.42;99482.41;4998633;28;20065;-63
2024/02/14 01:54:09;;;;;;;1.65;1.30;;;;;;;10.01;94.88;99490.34;4999398;28;20489;-64
2024/02/14 01:56:35;;;;;;;2.50;1.70;;;;;;;9.99;94.00;99491.50;4998550;28;20058;-63
2024/02/14 01:59:01;;;;;;;2.10;1.48;;;;;;;9.94;94.22;99499.94;4999496;28;20450;-62
2024/02/14 02:01:27;;;;;;;1.67;1.58;;;;;;;9.86;94.02;99482.25;4978878;28;20065;-62
2024/02/14 02:03:53;;;;;;;2.28;2.05;;;;;;;10.02;94.04;99505.22;4979190;28;20038;-62
2024/02/14 02:06:19;;;;;;;3.42;2.00;;;;;;;10.11;94.21;99508.72;4994640;28;20136;-62
2024/02/14 02:08:45;;;;;;;2.42;1.73;;;;;;;10.16;94.00;99511.69;4998620;28;20744;-64
2024/02/14 02:11:11;;;;;;;2.83;2.20;;;;;;;10.18;94.16;99512.34;4998534;28;20038;-63
2024/02/14 02:13:38;;;;;;;2.47;2.28;;;;;;;10.18;95.05;99520.28;4998779;28;20046;-62
2024/02/14 02:16:05;;;;;;;2.97;2.15;;;;;;;10.07;97.52;99510.03;4998093;28;20050;-62
2024/02/14 02:18:34;;;;;;;1.90;1.50;;;;;;;10.00;100.00;99517.78;4998305;28;20042;-62
2024/02/14 02:20:59;;;;;;;2.80;1.77;;;;;;;10.01;99.87;99515.97;4998934;28;20091;-62
2024/02/14 02:23:25;;;;;;;2.97;2.08;;;;;;;10.01;99.66;99511.50;4998063;28;20264;-62
2024/02/14 02:25:50;;;;;;;1.77;1.67;;;;;;;9.96;100.00;99521.75;4997803;28;20038;-62
2024/02/14 02:28:16;;;;;;;3.92;1.65;;;;;;;9.86;100.00;99513.16;4998371;28;20046;-63
2024/02/14 02:30:42;;;;;;;3.13;1.92;;;;;;;9.90;100.00;99523.25;4998476;28;20034;-62
2024/02/14 02:33:08;;;;;;;3.65;1.88;;;;;;;9.84;100.00;99528.34;4997265;28;20137;-64
2024/02/14 02:35:34;;;;;;;2.42;1.67;;;;;;;9.80;100.00;99530.50;4998416;28;20161;-63
2024/02/14 02:38:01;;;;;;;2.90;2.15;;;;;;;9.75;100.00;99524.88;4997616;28;20034;-62
2024/02/14 02:40:29;;;;;;;3.10;2.33;;;;;;;9.75;100.00;99540.72;4998175;28;20049;-62
2024/02/14 02:42:55;;;;;;;3.65;2.63;;;;;;;9.72;100.00;99525.19;4996995;28;20042;-62
2024/02/14 02:45:21;;;;;;;5.28;2.63;;;;;;;9.75;100.00;99538.09;4998185;28;20224;-62
2024/02/14 02:47:47;;;;;;;3.63;2.35;;;;;;;9.76;100.00;99533.63;4998097;28;20031;-62
2024/02/14 02:50:13;;;;;;;3.33;2.53;;;;;;;9.84;100.00;99537.13;4998273;28;20146;-64
2024/02/14 02:52:41;;;;;;;3.70;2.60;;;;;;;9.85;100.00;99546.69;4996828;28;20264;-63
2024/02/14 02:55:07;;;;;;;4.35;2.90;;;;;;;9.84;100.00;99537.13;4997832;28;20038;-62
2024/02/14 02:57:34;;;;;;;4.18;2.88;;;;;;;9.90;100.00;99547.03;4998058;28;20050;-63
2024/02/14 02:59:59;;;;;;;3.63;2.28;;;;;;;9.87;100.00;99550.00;4998479;28;20252;-62
2024/02/14 03:02:26;;;;;;;2.88;2.10;;;;;;;9.87;100.00;99552.66;4998202;28;20305;-62
2024/02/14 03:04:52;;;;;;;3.95;2.35;;;;;;;9.86;100.00;99561.59;4997650;28;20061;-63
2024/02/14 03:07:19;;;;;;;4.80;2.22;;;;;;;9.89;100.00;99566.53;4998069;28;20034;-63
2024/02/14 03:09:44;;;;;;;3.88;2.53;;;;;;;9.83;100.00;99564.56;4997249;28;20105;-62
2024/02/14 03:12:10;;;;;;;2.65;1.83;;;;;;;9.89;100.00;99563.06;4997873;28;20335;-62
2024/02/14 03:14:36;;;;;;;4.57;2.88;;;;;;;9.89;100.00;99566.53;4997151;28;20109;-62
2024/02/14 03:17:05;;;;;;;3.30;2.40;;;;;;;9.87;100.00;99571.16;4998082;28;20049;-63
2024/02/14 03:19:31;;;;;;;4.43;2.67;;;;;;;9.93;100.00;99567.06;4996898;28;20101;-62
2024/02/14 03:21:56;;;;;;;5.18;2.90;;;;;;;9.91;100.00;99566.38;4998849;28;20034;-63
2024/02/14 03:24:25;;;;;;;3.92;2.92;;;;;;;9.96;100.00;99572.00;4996851;28;20248;-64
2024/02/14 03:26:51;;;;;;;5.18;3.33;;;;;;;9.94;100.00;99574.00;4998521;28;20046;-64
2024/02/14 03:29:16;;;;;;;6.75;3.78;;;;;;;9.83;100.00;99577.78;4997401;28;20295;-62
2024/02/14 03:31:43;;;;;;;4.50;2.85;;;;;;;9.79;100.00;99589.66;5001053;28;20038;-62
2024/02/14 03:34:10;;;;;;;5.43;3.03;;;;;;;9.68;100.00;99586.47;5001756;28;20057;-62
2024/02/14 03:36:37;;;;;;;3.17;2.80;;;;;;;9.69;100.00;99594.25;5001244;28;20343;-64
2024/02/14 03:39:04;;;;;;;4.20;2.72;;;;;;;9.74;100.00;99591.97;5001255;28;20061;-64
2024/02/14 03:41:29;;;;;;;4.50;3.30;;;;;;;9.86;100.00;99601.25;5000440;28;20041;-62
2024/02/14 03:44:00;;;;;;;5.80;3.70;;;;;;;9.87;100.00;99594.97;5001071;28;20039;-63
2024/02/14 03:46:28;;;;;;;6.70;3.45;;;;;;;9.86;100.00;99603.06;5000920;28;20084;-62
2024/02/14 03:48:54;;;;;;;6.47;3.67;;;;;;;9.84;100.00;99605.03;5001083;28;20046;-63
2024/02/14 03:51:21;;;;;;;6.43;4.03;;;;;;;9.91;100.00;99611.34;5000156;28;20031;-63
2024/02/14 03:53:47;;;;;;;7.63;4.80;;;;;;;9.97;100.00;99607.22;5001466;28;20073;-63
2024/02/14 03:56:16;;;;;;;6.50;3.97;;;;;;;10.03;100.00;99611.88;5000635;28;20332;-63
2024/02/14 03:58:41;;;;;;;5.85;3.88;;;;;;;9.99;100.00;99608.72;5000908;28;20623;-64
2024/02/14 04:01:07;;;;;;;5.43;4.22;;;;;;;10.01;100.00;99608.56;4999141;28;20048;-62
2024/02/14 04:03:33;;;;;;;4.38;3.53;;;;;;;10.09;100.00;99614.69;5000556;28;20092;-63
2024/02/14 04:05:58;;;;;;;5.20;3.67;;;;;;;10.18;100.00;99612.91;4999598;28;20088;-61
2024/02/14 04:08:24;;;;;;;6.75;4.03;;;;;;;10.15;100.00;99618.50;5000395;28;20049;-62
2024/02/14 04:10:50;;;;;;;4.82;4.00;;;;;;;10.09;100.00;99620.00;5000308;28;20068;-62
2024/02/14 04:13:16;;;;;;;5.38;3.83;;;;;;;10.16;100.00;99622.81;5000520;28;20061;-62
2024/02/14 04:15:45;;;;;;;5.68;3.83;;;;;;;10.17;100.00;99621.81;5000220;28;20101;-61
2024/02/14 04:18:11;;;;;;;6.03;3.78;;;;;;;10.14;99.41;99630.09;5000539;28;20054;-62
2024/02/14 04:20:36;;;;;;;5.82;3.63;;;;;;;10.12;100.00;99632.06;5001242;28;20231;-60
2024/02/14 04:23:03;;;;;;;5.78;3.40;;;;;;;10.03;100.00;99627.75;5000656;28;20038;-61
2024/02/14 04:25:28;;;;;;;4.55;3.97;;;;;;;9.98;100.00;99630.88;4999140;28;20082;-63
2024/02/14 04:27:54;;;;;;;5.03;3.70;;;;;;;9.99;100.00;99635.19;5000128;28;20030;-62
2024/02/14 04:30:19;;;;;;;5.63;3.53;;;;;;;9.99;100.00;99644.94;5000155;28;20061;-62
2024/02/14 04:32:45;;;;;;;5.03;3.65;;;;;;;10.01;100.00;99640.31;4999979;28;20042;-64
2024/02/14 04:35:10;;;;;;;5.40;3.65;;;;;;;9.98;100.00;99643.28;5001626;28;20045;-63
2024/02/14 04:37:36;;;;;;;5.65;4.50;;;;;;;9.92;100.00;99639.44;4999826;28;20040;-62
2024/02/14 04:40:04;;;;;;;7.43;3.53;;;;;;;9.93;100.00;99639.28;5000796;28;20065;-63
2024/02/14 04:42:30;;;;;;;6.53;4.05;;;;;;;9.95;100.00;99636.47;4998344;28;20042;-62
2024/02/14 04:44:55;;;;;;;7.88;4.63;;;;;;;9.97;99.96;99646.91;5000889;28;20227;-62
2024/02/14 04:47:20;;;;;;;8.10;4.70;;;;;;;9.87;99.81;99626.72;4999824;28;20038;-62
2024/02/14 04:49:46;;;;;;;8.10;4.93;;;;;;;10.06;99.27;99641.47;5000225;28;20092;-64
2024/02/14 04:52:11;;;;;;;6.25;4.70;;;;;;;10.07;98.29;99650.25;4999725;28;20046;-62
2024/02/14 04:54:37;;;;;;;5.45;3.83;;;;;;;10.07;97.84;99642.31;4999668;28;20038;-62
2024/02/14 04:57:04;;;;;;;5.60;4.20;;;;;;;10.01;97.73;99653.53;5000393;28;20049;-62
2024/02/14 04:59:30;;;;;;;5.35;4.25;;;;;;;10.04;97.26;99650.56;4999375;28;20053;-62
2024/02/14 05:01:56;;;;;;;5.32;4.40;;;;;;;10.10;96.65;99652.56;4998729;28;20034;-62
2024/02/14 05:04:22;;;;;;;5.63;3.80;;;;;;;10.15;95.96;99656.38;4999882;28;20039;-62
2024/02/14 05:06:48;;;;;;;5.40;3.95;;;;;;;10.19;95.22;99659.53;4999516;28;20104;-64
2024/02/14 05:09:14;;;;;;;7.57;4.53;;;;;;;10.13;94.97;99654.88;4999349;28;20050;-64
2024/02/14 05:11:40;;;;;;;6.00;4.10;;;;;;;10.11;95.14;99667.44;4999580;28;20030;-63
2024/02/14 05:14:05;;;;;;;7.82;5.47;;;;;;;10.08;94.80;99658.03;4997784;28;20247;-62
2024/02/14 05:16:31;;;;;;;5.45;4.65;;;;;;;10.09;95.50;99664.13;4995744;28;20042;-62
2024/02/14 05:18:56;;;;;;;6.53;4.70;;;;;;;10.07;95.35;99666.94;4999387;28;20238;-62
2024/02/14 05:21:22;;;;;;;5.13;3.58;;;;;;;10.03;94.44;99670.06;4998947;28;20336;-62
2024/02/14 05:23:48;;;;;;;6.18;4.00;;;;;;;9.99;94.80;99669.56;4999980;28;20232;-62
2024/02/14 05:26:13;;;;;;;5.65;4.57;;;;;;;10.01;95.74;99666.75;4998747;28;20069;-63
2024/02/14 05:28:39;;;;;;;5.47;3.78;;;;;;;9.99;95.74;99677.50;4998709;28;20145;-63
2024/02/14 05:31:05;;;;;;;6.95;3.90;;;;;;;10.07;95.43;99684.63;4998795;28;20092;-63
2024/02/14 05:33:30;;;;;;;6.13;4.15;;;;;;;10.08;94.15;99676.53;4999667;28;20109;-63
2024/02/14 05:35:56;;;;;;;5.75;4.00;;;;;;;10.11;94.31;99678.88;5000037;28;20072;-62
2024/02/14 05:38:21;;;;;;;6.25;4.80;;;;;;;10.16;94.48;99687.16;4999485;28;20397;-63
2024/02/14 05:40:48;;;;;;;7.38;4.82;;;;;;;10.12;94.41;99691.09;4997791;28;20030;-62
2024/02/14 05:43:13;;;;;;;8.27;5.22;;;;;;;10.13;94.33;99700.69;4997888;28;20034;-63
2024/02/14 05:45:39;;;;;;;6.85;5.05;;;;;;;10.02;93.07;99694.88;4997995;28;20042;-63
2024/02/14 05:48:05;;;;;;;7.30;5.60;;;;;;;9.98;94.72;99697.00;4998762;28;20038;-62
2024/02/14 05:50:31;;;;;;;6.97;4.97;;;;;;;9.92;94.84;99701.13;4998481;28;20076;-62
2024/02/14 05:52:59;;;;;;;9.32;5.43;;;;;;;10.00;93.82;99702.97;4998608;28;20239;-63
2024/02/14 05:55:25;;;;;;;9.68;5.50;;;;;;;10.01;93.86;99707.25;4998172;28;20329;-62
2024/02/14 05:57:54;;;;;;;11.80;6.75;;;;;;;10.02;94.29;99713.38;4997880;28;20093;-62
2024/02/14 06:00:20;;;;;;;10.93;6.32;;;;;;;10.01;93.99;99731.06;4998223;28;20030;-64
2024/02/14 06:02:47;;;;;;;11.02;6.50;;;;;;;10.05;94.49;99728.94;4997777;28;20097;-63
2024/02/14 06:05:13;;;;;;;12.20;6.90;;;;;;;9.93;94.68;99717.81;4997927;28;20275;-62
2024/02/14 06:07:38;;;;;;;9.80;6.85;;;;;;;10.06;95.18;99733.25;4998044;28;20034;-63
2024/02/14 06:10:06;;;;;;;10.48;7.18;;;;;;;10.10;94.94;99735.41;4998213;28;20038;-62
2024/02/14 06:12:32;;;;;;;10.18;7.25;;;;;;;10.06;95.48;99734.06;4997944;28;20030;-63
2024/02/14 06:14:57;;;;;;;13.15;8.60;;;;;;;10.04;95.53;99736.03;4998329;28;20038;-63
2024/02/14 06:17:22;;;;;;;11.25;7.65;;;;;;;10.04;94.82;99738.69;4998338;28;20040;-63
2024/02/14 06:19:48;;;;;;;10.63;8.10;;;;;;;10.02;95.40;99751.25;4997711;28;20239;-62
2024/02/14 06:22:13;;;;;;;11.82;8.07;;;;;;;10.07;95.30;99754.25;4997587;28;20038;-62
2024/02/14 06:24:39;;;;;;;12.57;9.07;;;;;;;10.11;95.24;99755.59;4997814;28;20076;-63
2024/02/14 06:27:04;;;;;;;9.90;7.90;;;;;;;10.17;94.41;99757.59;4998202;28;20034;-62
2024/02/14 06:29:30;;;;;;;12.68;8.75;;;;;;;10.14;94.76;99759.72;4998172;28;20264;-64
2024/02/14 06:31:55;;;;;;;12.20;8.15;;;;;;;10.16;94.89;99763.88;4997995;28;20044;-63
2024/02/14 06:34:21;;;;;;;12.25;9.15;;;;;;;10.13;94.94;99760.72;4997303;28;20048;-62
2024/02/14 06:36:47;;;;;;;14.80;10.30;;;;;;;10.16;94.26;99761.22;4997508;28;20034;-62
2024/02/14 06:39:12;;;;;;;14.10;9.45;;;;;;;10.16;94.12;99761.22;4997962;28;20245;-63
2024/02/14 06:41:38;;;;;;;11.60;7.47;;;;;;;10.11;92.79;99762.69;4995632;28;20089;-62
2024/02/14 06:44:04;;;;;;;10.02;7.68;;;;;;;10.19;93.08;99768.03;4997717;28;20050;-63
2024/02/14 06:46:30;;;;;;;11.15;7.65;;;;;;;10.27;92.95;99780.50;4997763;28;20593;-63
2024/02/14 06:48:56;;;;;;;11.70;8.73;;;;;;;10.27;92.79;99773.38;4997794;28;20061;-64
2024/02/14 06:51:23;;;;;;;12.02;8.98;;;;;;;10.28;92.84;99777.69;4996289;28;20038;-62
2024/02/14 06:53:50;;;;;;;12.88;8.32;;;;;;;10.29;92.36;99782.00;4997849;28;20042;-62
2024/02/14 06:56:16;;;;;;;9.20;7.78;;;;;;;10.31;91.85;99793.25;4997252;28;20376;-62
2024/02/14 06:58:41;;;;;;;9.23;6.30;;;;;;;10.29;92.71;99783.81;4997651;28;20038;-63
2024/02/14 07:01:07;;;;;;;10.07;6.78;;;;;;;10.28;92.64;99795.38;4997857;28;20064;-64
2024/02/14 07:03:33;;;;;;;9.73;6.20;;;;;;;10.35;91.97;99791.94;4997388;28;20066;-63
2024/02/14 07:05:59;;;;;;;9.13;6.55;;;;;;;10.32;91.80;99796.72;4999276;28;20048;-63
2024/02/14 07:08:27;;;;;;;9.95;7.10;;;;;;;10.20;91.43;99804.94;5001674;28;20054;-62
2024/02/14 07:10:52;;;;;;;11.15;7.30;;;;;;;10.17;92.15;99805.22;5000846;28;20034;-62
2024/02/14 07:13:18;;;;;;;11.32;7.15;;;;;;;10.21;91.93;99805.78;5000980;28;20034;-63
2024/02/14 07:15:43;;;;;;;8.63;6.72;;;;;;;10.26;91.57;99815.88;5001184;28;20124;-62
2024/02/14 07:18:09;;;;;;;10.27;6.68;;;;;;;10.29;91.91;99816.41;5001954;28;20320;-62
2024/02/14 07:20:35;;;;;;;8.68;6.40;;;;;;;10.32;91.17;99824.03;5001088;28;20058;-64
2024/02/14 07:23:01;;;;;;;7.95;5.32;;;;;;;10.31;91.29;99819.72;5001285;28;20052;-63
2024/02/14 07:25:26;;;;;;;8.25;5.88;;;;;;;10.33;91.90;99828.31;5000248;28;20034;-62
2024/02/14 07:27:52;;;;;;;8.85;6.43;;;;;;;10.42;90.98;99827.41;5001189;28;20079;-62
2024/02/14 07:30:17;;;;;;;7.28;5.45;;;;;;;10.42;91.81;99837.16;5000803;28;20042;-62
2024/02/14 07:32:44;;;;;;;9.27;5.60;;;;;;;10.40;91.28;99837.31;5001779;28;20093;-62
2024/02/14 07:35:09;;;;;;;7.28;5.55;;;;;;;10.46;90.50;99843.81;5001230;28;20038;-63
2024/02/14 07:37:35;;;;;;;6.38;5.07;;;;;;;10.34;90.79;99856.44;5000844;28;20045;-64
2024/02/14 07:40:00;;;;;;;7.32;5.38;;;;;;;10.34;90.57;99845.88;5001196;28;20042;-63
2024/02/14 07:42:26;;;;;;;11.05;6.35;;;;;;;10.36;90.99;99845.72;5001372;28;20057;-62
2024/02/14 07:44:51;;;;;;;7.03;5.32;;;;;;;10.35;89.88;99852.81;5000740;28;20343;-63
2024/02/14 07:47:17;;;;;;;6.93;5.35;;;;;;;10.33;89.64;99857.44;5000746;28;20277;-63
2024/02/14 07:49:42;;;;;;;6.78;5.53;;;;;;;10.36;90.43;99854.47;5000619;28;20263;-62
2024/02/14 07:52:07;;;;;;;8.38;5.78;;;;;;;10.40;90.63;99849.69;4999780;28;20050;-62
2024/02/14 07:54:33;;;;;;;10.13;6.75;;;;;;;10.35;90.21;99860.75;5000187;28;20073;-62
2024/02/14 07:56:58;;;;;;;11.50;7.15;;;;;;;10.32;90.08;99858.44;4999881;28;20034;-64
2024/02/14 07:59:24;;;;;;;10.20;6.90;;;;;;;10.25;89.46;99854.75;4998337;28;20046;-62
2024/02/14 08:01:49;;;;;;;10.13;6.38;;;;;;;10.23;89.61;99854.91;5008914;28;20033;-62
2024/02/14 08:04:15;;;;;;;9.50;6.47;;;;;;;10.24;89.52;99859.22;5003767;28;20061;-62
2024/02/14 08:06:41;;;;;;;9.40;6.05;;;;;;;10.18;89.02;99865.09;4999238;28;20042;-62
2024/02/14 08:09:09;;;;;;;8.93;6.22;;;;;;;10.20;89.37;99864.97;4999094;28;20354;-63
2024/02/14 08:11:35;;;;;;;9.48;6.50;;;;;;;10.20;89.37;99868.44;4999384;28;20030;-63
2024/02/14 08:14:01;;;;;;;9.65;6.18;;;;;;;10.24;89.09;99880.38;5000023;28;20607;-62
2024/02/14 08:16:26;;;;;;;9.27;7.03;;;;;;;10.24;87.34;99880.38;4999300;28;20348;-64
2024/02/14 08:18:58;;;;;;;10.73;6.22;;;;;;;10.19;88.16;99885.28;4999901;28;20064;-63
2024/02/14 08:21:25;;;;;;;9.10;6.18;;;;;;;10.28;87.50;99886.19;4999665;28;20332;-63
2024/02/14 08:23:51;;;;;;;8.68;5.55;;;;;;;10.26;87.07;99885.53;4999068;28;20324;-62
2024/02/14 08:26:17;;;;;;;10.02;6.80;;;;;;;10.33;86.16;99885.72;4999156;28;20042;-62
2024/02/14 08:28:42;;;;;;;11.45;6.93;;;;;;;10.33;85.83;99885.72;4999448;28;20042;-62
2024/02/14 08:31:11;;;;;;;10.63;7.13;;;;;;;10.41;86.07;99889.28;4999376;28;20038;-64
2024/02/14 08:33:37;;;;;;;12.80;6.82;;;;;;;10.43;86.44;99889.94;4999031;28;20858;-63
2024/02/14 08:36:04;;;;;;;9.85;6.53;;;;;;;10.47;85.18;99893.09;4999310;28;20050;-62
2024/02/14 08:38:29;;;;;;;10.82;6.90;;;;;;;10.52;85.59;99904.06;4998745;28;20093;-62
2024/02/14 08:40:55;;;;;;;10.15;6.72;;;;;;;10.59;85.70;99902.44;4998998;28;20038;-63
2024/02/14 08:43:21;;;;;;;8.48;5.60;;;;;;;10.61;85.03;99903.09;4998887;28;20060;-62
2024/02/14 08:45:46;;;;;;;7.88;5.20;;;;;;;10.67;84.85;99906.94;4998288;28;20038;-64
2024/02/14 08:48:11;;;;;;;12.32;7.03;;;;;;;10.72;84.49;99910.78;4998929;28;20038;-63
2024/02/14 08:50:37;;;;;;;11.43;7.82;;;;;;;10.73;85.22;99908.94;4999311;28;20076;-63
2024/02/14 08:53:02;;;;;;;8.18;5.55;;;;;;;10.75;85.26;99910.44;4998876;28;20040;-62
2024/02/14 08:55:29;;;;;;;9.63;5.90;;;;;;;10.74;84.67;99915.91;4998632;28;20038;-62
2024/02/14 08:57:54;;;;;;;12.25;5.95;;;;;;;10.79;84.80;99922.38;4998522;28;20050;-62
2024/02/14 09:00:20;;;;;;;10.27;7.32;;;;;;;10.84;84.84;99921.91;4998089;28;20026;-62
2024/02/14 09:02:49;;;;;;;8.57;6.22;;;;;;;10.87;84.87;99935.66;4998081;28;20327;-62
2024/02/14 09:05:16;;;;;;;10.27;6.47;;;;;;;10.90;85.15;99929.22;4997598;28;20057;-63
2024/02/14 09:07:42;;;;;;;8.52;6.20;;;;;;;10.86;84.78;99930.53;4998651;28;20110;-64
2024/02/14 09:10:08;;;;;;;10.55;6.70;;;;;;;10.92;85.39;99934.38;4998875;28;20326;-62
2024/02/14 09:12:33;;;;;;;10.95;6.90;;;;;;;10.95;86.57;99936.69;4998251;28;20093;-62
2024/02/14 09:14:59;;;;;;;10.68;7.22;;;;;;;11.00;86.40;99937.88;4997957;28;20312;-62
2024/02/14 09:17:25;;;;;;;10.15;7.18;;;;;;;11.06;86.09;99937.22;4998194;28;20372;-62
2024/02/14 09:19:51;;;;;;;11.68;7.85;;;;;;;11.03;86.89;99934.06;4998907;28;20034;-62
2024/02/14 09:22:21;;;;;;;11.75;8.13;;;;;;;11.02;87.54;99930.59;4998390;28;20076;-62
2024/02/14 09:24:48;;;;;;;11.55;8.13;;;;;;;11.01;87.88;99936.88;4998425;28;20040;-63
2024/02/14 09:27:13;;;;;;;11.15;7.30;;;;;;;11.01;87.52;99934.22;4998600;28;20042;-63
2024/02/14 09:29:39;;;;;;;9.43;6.35;;;;;;;11.01;86.24;99946.66;4997173;28;20336;-62
2024/02/14 09:32:05;;;;;;;13.48;8.15;;;;;;;11.03;87.15;99940.19;4997693;28;20079;-62
2024/02/14 09:34:30;;;;;;;16.33;10.00;;;;;;;11.02;87.01;99935.06;4998557;28;20041;-63
2024/02/14 09:36:58;;;;;;;13.68;8.63;;;;;;;11.02;88.64;99938.53;4998119;28;20236;-62
2024/02/14 09:39:24;;;;;;;13.85;8.57;;;;;;;11.00;88.26;99934.41;4997917;28;20048;-62
2024/02/14 09:41:59;;;;;;;11.93;8.57;;;;;;;10.95;89.25;99921.63;4998097;28;20041;-63
2024/02/14 09:44:28;;;;;;;10.05;7.43;;;;;;;10.95;88.17;99926.09;4997709;28;20061;-62
2024/02/14 09:46:56;;;;;;;10.82;7.72;;;;;;;10.97;88.00;99918.81;4998060;28;20367;-63
2024/02/14 09:49:22;;;;;;;15.10;8.48;;;;;;;10.97;88.46;99924.94;4997711;28;20054;-62
2024/02/14 09:51:49;;;;;;;13.65;8.77;;;;;;;11.04;88.17;99918.00;4998203;28;20034;-62
2024/02/14 09:54:16;;;;;;;13.88;7.93;;;;;;;11.01;87.25;99923.63;4996826;28;20042;-62
2024/02/14 09:56:47;;;;;;;11.95;8.18;;;;;;;11.07;87.51;99925.63;4997028;28;20045;-62
2024/02/14 09:59:15;;;;;;;13.40;8.80;;;;;;;11.08;87.83;99923.81;4996376;28;20038;-63
2024/02/14 10:01:41;;;;;;;12.73;8.70;;;;;;;11.08;87.67;99923.81;4997838;28;20068;-62
2024/02/14 10:04:06;;;;;;;14.73;8.73;;;;;;;11.11;88.84;99919.03;5017166;28;20049;-62
2024/02/14 10:06:33;;;;;;;13.45;7.88;;;;;;;11.09;87.21;99922.84;4996951;28;20034;-63
2024/02/14 10:08:59;;;;;;;13.00;8.30;;;;;;;11.01;87.41;99922.81;4996918;28;20041;-62
2024/02/14 10:11:27;;;;;;;11.85;7.55;;;;;;;10.95;86.80;99926.94;4995914;28;20223;-62
2024/02/14 10:13:54;;;;;;;12.32;8.18;;;;;;;10.97;88.50;99927.59;4996772;28;20049;-62
2024/02/14 10:16:19;;;;;;;10.73;8.75;;;;;;;10.96;86.88;99930.41;4995486;28;20124;-64
2024/02/14 10:18:49;;;;;;;11.35;7.68;;;;;;;11.02;86.41;99935.91;4996471;28;20038;-63
2024/02/14 10:21:18;;;;;;;10.85;7.10;;;;;;;10.97;85.33;99919.66;4996882;28;20049;-62
2024/02/14 10:23:45;;;;;;;10.18;7.05;;;;;;;11.03;85.61;99926.13;4997180;28;20516;-62
2024/02/14 10:26:11;;;;;;;10.05;7.10;;;;;;;11.05;84.77;99932.09;4995741;28;20053;-62
2024/02/14 10:28:37;;;;;;;9.70;6.95;;;;;;;11.02;83.85;99922.66;4996046;28;20037;-63
2024/02/14 10:31:05;;;;;;;9.02;6.80;;;;;;;11.02;83.94;99904.09;4997054;28;20030;-61
2024/02/14 10:33:31;;;;;;;10.05;6.50;;;;;;;11.06;83.15;99904.59;4997478;28;20042;-62
2024/02/14 10:35:57;;;;;;;8.25;6.07;;;;;;;11.10;83.77;99903.28;4996760;28;20046;-62
2024/02/14 10:38:24;;;;;;;9.60;6.05;;;;;;;11.14;82.70;99900.16;4995874;28;20062;-62
2024/02/14 10:40:51;;;;;;;8.73;6.07;;;;;;;11.17;81.57;99897.19;4996914;28;20049;-63
2024/02/14 10:43:17;;;;;;;8.98;6.05;;;;;;;11.27;81.67;99898.84;4997342;28;20046;-64
2024/02/14 10:45:43;;;;;;;8.77;6.32;;;;;;;11.26;79.98;99886.59;4996823;28;20374;-63
2024/02/14 10:48:12;;;;;;;9.80;6.45;;;;;;;11.41;81.99;99891.09;4995557;28;20059;-62
2024/02/14 10:50:41;;;;;;;8.77;6.15;;;;;;;11.46;81.02;99891.47;4997297;28;20061;-63
2024/02/14 10:53:14;;;;;;;8.98;6.47;;;;;;;11.47;79.49;99890.47;4996955;28;20030;-64
2024/02/14 10:55:44;;;;;;;7.85;5.88;;;;;;;11.55;79.47;99894.13;4997029;28;20053;-62
2024/02/14 10:58:11;;;;;;;7.60;6.63;;;;;;;11.57;79.23;99890.31;4996009;28;20054;-62
2024/02/14 11:00:37;;;;;;;5.65;4.40;;;;;;;11.58;77.84;99894.63;4996311;28;20031;-62
2024/02/14 11:03:03;;;;;;;7.10;5.05;;;;;;;11.55;76.37;99896.78;4996038;28;20093;-62
2024/02/14 11:05:29;;;;;;;7.18;4.93;;;;;;;11.56;77.23;99899.25;4996699;28;20042;-62
2024/02/14 11:07:56;;;;;;;6.57;4.65;;;;;;;11.57;77.64;99892.13;4995674;28;20030;-62
2024/02/14 11:10:22;;;;;;;6.90;5.10;;;;;;;11.54;76.74;99901.25;4995960;28;20088;-62
2024/02/14 11:12:50;;;;;;;7.75;5.50;;;;;;;11.57;77.68;99895.63;4996427;28;20344;-64
2024/02/14 11:15:21;;;;;;;8.88;5.70;;;;;;;11.61;76.87;99894.28;4996715;28;20108;-62
2024/02/14 11:17:49;;;;;;;9.10;5.65;;;;;;;11.64;76.63;99893.13;4996517;28;20352;-62
2024/02/14 11:20:21;;;;;;;9.13;5.20;;;;;;;11.69;77.04;99896.94;4996406;28;20034;-62
2024/02/14 11:22:57;;;;;;;6.68;5.00;;;;;;;11.70;76.32;99890.66;4996817;28;20101;-63
2024/02/14 11:25:35;;;;;;;6.20;4.47;;;;;;;11.80;77.97;99891.34;4996361;28;20370;-63
2024/02/14 11:28:12;;;;;;;5.82;4.45;;;;;;;12.00;78.28;99877.72;4996385;28;20247;-64